sensor_id;sensor_type;location;lat;lon;timestamp;P1;durP1;ratioP1;P2;durP2;ratioP2
3971;SDS011;2000;47.572;14.202;2023-04-01T00:01:15;2.50;;;1.63;;
3971;SDS011;2000;47.572;14.202;2023-04-01T00:03:42;4.37;;;1.40;;
3971;SDS011;2000;47.572;14.202;2023-04-01T00:06:13;4.43;;;1.60;;
3971;SDS011;2000;47.572;14.202;2023-04-01T00:08:41;1.40;;;1.30;;
3971;SDS011;2000;47.572;14.202;2023-04-01T00:11:08;1.47;;;1.30;;
3971;SDS011;2000;47.572;14.202;2023-04-01T00:13:35;2.23;;;2.03;;
3971;SDS011;2000;47.572;14.202;2023-04-01T00:16:02;2.70;;;2.33;;
3971;SDS011;2000;47.572;14.202;2023-04-01T00:18:46;1.47;;;1.37;;
3971;SDS011;2000;47.572;14.202;2023-04-01T00:21:16;2.13;;;1.67;;
3971;SDS011;2000;47.572;14.202;2023-04-01T00:23:43;4.23;;;2.67;;
3971;SDS011;2000;47.572;14.202;2023-04-01T00:26:10;2.33;;;1.60;;
3971;SDS011;2000;47.572;14.202;2023-04-01T00:28:38;1.70;;;1.60;;
3971;SDS011;2000;47.572;14.202;2023-04-01T00:31:09;2.33;;;2.13;;
3971;SDS011;2000;47.572;14.202;2023-04-01T00:33:37;3.80;;;2.23;;
3971;SDS011;2000;47.572;14.202;2023-04-01T00:36:11;2.27;;;2.07;;
3971;SDS011;2000;47.572;14.202;2023-04-01T00:38:39;2.87;;;2.10;;
3971;SDS011;2000;47.572;14.202;2023-04-01T00:41:06;3.20;;;1.80;;
3971;SDS011;2000;47.572;14.202;2023-04-01T00:43:33;1.70;;;1.60;;
3971;SDS011;2000;47.572;14.202;2023-04-01T00:46:00;1.60;;;1.50;;
3971;SDS011;2000;47.572;14.202;2023-04-01T00:48:29;2.20;;;2.00;;
3971;SDS011;2000;47.572;14.202;2023-04-01T00:50:59;2.83;;;1.43;;
3971;SDS011;2000;47.572;14.202;2023-04-01T00:53:28;2.43;;;1.60;;
3971;SDS011;2000;47.572;14.202;2023-04-01T00:56:00;3.03;;;1.40;;
3971;SDS011;2000;47.572;14.202;2023-04-01T00:58:32;1.60;;;1.50;;
3971;SDS011;2000;47.572;14.202;2023-04-01T01:01:01;3.90;;;1.30;;
3971;SDS011;2000;47.572;14.202;2023-04-01T01:03:28;1.93;;;1.80;;
3971;SDS011;2000;47.572;14.202;2023-04-01T01:05:59;1.20;;;1.10;;
3971;SDS011;2000;47.572;14.202;2023-04-01T01:11:17;1.93;;;1.57;;
3971;SDS011;2000;47.572;14.202;2023-04-01T01:13:53;4.00;;;1.50;;
3971;SDS011;2000;47.572;14.202;2023-04-01T01:16:29;1.23;;;1.07;;
3971;SDS011;2000;47.572;14.202;2023-04-01T01:19:05;4.10;;;1.40;;
3971;SDS011;2000;47.572;14.202;2023-04-01T01:27:03;1.33;;;1.23;;
3971;SDS011;2000;47.572;14.202;2023-04-01T01:35:49;2.10;;;1.47;;
3971;SDS011;2000;47.572;14.202;2023-04-01T01:38:14;1.00;;;1.00;;
3971;SDS011;2000;47.572;14.202;2023-04-01T01:40:46;2.90;;;1.17;;
3971;SDS011;2000;47.572;14.202;2023-04-01T01:43:16;1.50;;;1.00;;
3971;SDS011;2000;47.572;14.202;2023-04-01T01:45:46;6.50;;;1.47;;
3971;SDS011;2000;47.572;14.202;2023-04-01T01:48:15;1.73;;;1.30;;
3971;SDS011;2000;47.572;14.202;2023-04-01T01:50:43;1.60;;;1.50;;
3971;SDS011;2000;47.572;14.202;2023-04-01T01:53:12;1.53;;;1.43;;
3971;SDS011;2000;47.572;14.202;2023-04-01T01:55:40;3.23;;;0.90;;
3971;SDS011;2000;47.572;14.202;2023-04-01T01:58:13;1.50;;;1.10;;
3971;SDS011;2000;47.572;14.202;2023-04-01T02:00:53;1.63;;;1.30;;
3971;SDS011;2000;47.572;14.202;2023-04-01T02:03:22;1.40;;;1.30;;
3971;SDS011;2000;47.572;14.202;2023-04-01T02:05:52;2.13;;;1.00;;
3971;SDS011;2000;47.572;14.202;2023-04-01T02:08:21;1.43;;;1.33;;
3971;SDS011;2000;47.572;14.202;2023-04-01T02:10:57;1.10;;;1.00;;
3971;SDS011;2000;47.572;14.202;2023-04-01T02:13:47;2.10;;;1.43;;
3971;SDS011;2000;47.572;14.202;2023-04-01T02:16:26;3.70;;;1.23;;
3971;SDS011;2000;47.572;14.202;2023-04-01T02:18:56;5.93;;;2.10;;
3971;SDS011;2000;47.572;14.202;2023-04-01T02:21:24;2.63;;;0.73;;
3971;SDS011;2000;47.572;14.202;2023-04-01T02:23:54;2.20;;;1.20;;
3971;SDS011;2000;47.572;14.202;2023-04-01T02:26:23;1.70;;;1.57;;
3971;SDS011;2000;47.572;14.202;2023-04-01T02:28:52;0.90;;;0.83;;
3971;SDS011;2000;47.572;14.202;2023-04-01T02:31:21;1.07;;;1.07;;
3971;SDS011;2000;47.572;14.202;2023-04-01T02:33:48;2.93;;;1.40;;
3971;SDS011;2000;47.572;14.202;2023-04-01T02:36:15;1.27;;;1.10;;
3971;SDS011;2000;47.572;14.202;2023-04-01T02:38:43;1.00;;;1.00;;
3971;SDS011;2000;47.572;14.202;2023-04-01T02:41:11;4.20;;;1.40;;
3971;SDS011;2000;47.572;14.202;2023-04-01T02:43:38;1.80;;;1.30;;
3971;SDS011;2000;47.572;14.202;2023-04-01T02:46:06;1.20;;;1.20;;
3971;SDS011;2000;47.572;14.202;2023-04-01T02:48:33;0.73;;;0.70;;
3971;SDS011;2000;47.572;14.202;2023-04-01T02:50:59;1.13;;;1.03;;
3971;SDS011;2000;47.572;14.202;2023-04-01T02:53:26;1.50;;;1.33;;
3971;SDS011;2000;47.572;14.202;2023-04-01T02:55:53;1.57;;;1.40;;
3971;SDS011;2000;47.572;14.202;2023-04-01T02:58:20;4.57;;;1.20;;
3971;SDS011;2000;47.572;14.202;2023-04-01T03:00:46;1.83;;;1.17;;
3971;SDS011;2000;47.572;14.202;2023-04-01T03:03:13;1.70;;;1.57;;
3971;SDS011;2000;47.572;14.202;2023-04-01T03:05:40;0.93;;;0.93;;
3971;SDS011;2000;47.572;14.202;2023-04-01T03:08:07;1.23;;;1.13;;
3971;SDS011;2000;47.572;14.202;2023-04-01T03:10:34;1.40;;;0.80;;
3971;SDS011;2000;47.572;14.202;2023-04-01T03:13:01;2.10;;;1.10;;
3971;SDS011;2000;47.572;14.202;2023-04-01T03:15:28;1.63;;;0.97;;
3971;SDS011;2000;47.572;14.202;2023-04-01T03:17:55;3.53;;;1.33;;
3971;SDS011;2000;47.572;14.202;2023-04-01T03:20:22;1.37;;;1.30;;
3971;SDS011;2000;47.572;14.202;2023-04-01T03:22:48;0.97;;;0.90;;
3971;SDS011;2000;47.572;14.202;2023-04-01T03:25:15;2.20;;;0.93;;
3971;SDS011;2000;47.572;14.202;2023-04-01T03:27:42;1.50;;;1.40;;
3971;SDS011;2000;47.572;14.202;2023-04-01T03:30:09;2.93;;;1.20;;
3971;SDS011;2000;47.572;14.202;2023-04-01T03:32:36;1.50;;;0.97;;
3971;SDS011;2000;47.572;14.202;2023-04-01T03:35:03;2.07;;;0.90;;
3971;SDS011;2000;47.572;14.202;2023-04-01T03:37:31;0.83;;;0.80;;
3971;SDS011;2000;47.572;14.202;2023-04-01T03:39:58;3.57;;;1.37;;
3971;SDS011;2000;47.572;14.202;2023-04-01T03:42:25;7.43;;;2.53;;
3971;SDS011;2000;47.572;14.202;2023-04-01T03:44:52;2.87;;;2.13;;
3971;SDS011;2000;47.572;14.202;2023-04-01T03:47:18;3.37;;;2.13;;
3971;SDS011;2000;47.572;14.202;2023-04-01T03:49:45;1.53;;;1.43;;
3971;SDS011;2000;47.572;14.202;2023-04-01T03:52:12;1.47;;;1.17;;
3971;SDS011;2000;47.572;14.202;2023-04-01T03:54:39;1.37;;;1.27;;
3971;SDS011;2000;47.572;14.202;2023-04-01T03:57:06;2.20;;;0.90;;
3971;SDS011;2000;47.572;14.202;2023-04-01T03:59:33;1.00;;;0.90;;
3971;SDS011;2000;47.572;14.202;2023-04-01T04:02:00;4.07;;;0.90;;
3971;SDS011;2000;47.572;14.202;2023-04-01T04:04:27;0.70;;;0.70;;
3971;SDS011;2000;47.572;14.202;2023-04-01T04:06:54;1.13;;;1.03;;
3971;SDS011;2000;47.572;14.202;2023-04-01T04:09:21;3.00;;;1.40;;
3971;SDS011;2000;47.572;14.202;2023-04-01T04:11:48;2.90;;;0.80;;
3971;SDS011;2000;47.572;14.202;2023-04-01T04:14:16;0.70;;;0.70;;
3971;SDS011;2000;47.572;14.202;2023-04-01T04:16:43;1.33;;;1.00;;
3971;SDS011;2000;47.572;14.202;2023-04-01T04:19:09;1.87;;;1.00;;
3971;SDS011;2000;47.572;14.202;2023-04-01T04:21:36;6.63;;;0.87;;
3971;SDS011;2000;47.572;14.202;2023-04-01T04:24:03;1.33;;;0.77;;
3971;SDS011;2000;47.572;14.202;2023-04-01T04:26:30;1.47;;;0.60;;
3971;SDS011;2000;47.572;14.202;2023-04-01T04:28:57;1.23;;;0.53;;
3971;SDS011;2000;47.572;14.202;2023-04-01T04:31:24;2.60;;;2.50;;
3971;SDS011;2000;47.572;14.202;2023-04-01T04:33:52;1.40;;;1.30;;
3971;SDS011;2000;47.572;14.202;2023-04-01T04:36:19;2.23;;;1.87;;
3971;SDS011;2000;47.572;14.202;2023-04-01T04:38:47;3.73;;;0.50;;
3971;SDS011;2000;47.572;14.202;2023-04-01T04:41:14;1.03;;;0.70;;
3971;SDS011;2000;47.572;14.202;2023-04-01T04:43:54;0.40;;;0.40;;
3971;SDS011;2000;47.572;14.202;2023-04-01T04:46:22;0.93;;;0.67;;
3971;SDS011;2000;47.572;14.202;2023-04-01T04:48:49;0.40;;;0.40;;
3971;SDS011;2000;47.572;14.202;2023-04-01T04:51:16;0.37;;;0.30;;
3971;SDS011;2000;47.572;14.202;2023-04-01T04:53:44;0.60;;;0.40;;
3971;SDS011;2000;47.572;14.202;2023-04-01T04:56:11;3.50;;;0.40;;
3971;SDS011;2000;47.572;14.202;2023-04-01T04:58:38;1.10;;;0.40;;
3971;SDS011;2000;47.572;14.202;2023-04-01T05:01:09;0.73;;;0.73;;
3971;SDS011;2000;47.572;14.202;2023-04-01T05:03:38;1.80;;;0.50;;
3971;SDS011;2000;47.572;14.202;2023-04-01T05:06:05;1.37;;;0.60;;
3971;SDS011;2000;47.572;14.202;2023-04-01T05:08:33;0.97;;;0.30;;
3971;SDS011;2000;47.572;14.202;2023-04-01T05:11:00;4.23;;;0.70;;
3971;SDS011;2000;47.572;14.202;2023-04-01T05:13:28;0.40;;;0.37;;
3971;SDS011;2000;47.572;14.202;2023-04-01T05:15:55;1.23;;;0.60;;
3971;SDS011;2000;47.572;14.202;2023-04-01T05:18:22;1.20;;;0.37;;
3971;SDS011;2000;47.572;14.202;2023-04-01T05:20:49;0.60;;;0.60;;
3971;SDS011;2000;47.572;14.202;2023-04-01T05:23:17;0.70;;;0.40;;
3971;SDS011;2000;47.572;14.202;2023-04-01T05:25:49;1.33;;;0.60;;
3971;SDS011;2000;47.572;14.202;2023-04-01T05:28:19;10.40;;;0.37;;
3971;SDS011;2000;47.572;14.202;2023-04-01T05:30:46;1.40;;;0.40;;
3971;SDS011;2000;47.572;14.202;2023-04-01T05:33:13;0.63;;;0.53;;
3971;SDS011;2000;47.572;14.202;2023-04-01T05:35:40;0.83;;;0.50;;
3971;SDS011;2000;47.572;14.202;2023-04-01T05:38:07;2.47;;;1.10;;
3971;SDS011;2000;47.572;14.202;2023-04-01T05:40:34;2.70;;;0.70;;
3971;SDS011;2000;47.572;14.202;2023-04-01T05:43:01;5.80;;;0.57;;
3971;SDS011;2000;47.572;14.202;2023-04-01T05:45:27;0.50;;;0.40;;
3971;SDS011;2000;47.572;14.202;2023-04-01T05:47:54;1.17;;;0.40;;
3971;SDS011;2000;47.572;14.202;2023-04-01T05:50:21;0.37;;;0.37;;
3971;SDS011;2000;47.572;14.202;2023-04-01T05:52:48;0.50;;;0.20;;
3971;SDS011;2000;47.572;14.202;2023-04-01T05:55:15;0.40;;;0.20;;
3971;SDS011;2000;47.572;14.202;2023-04-01T05:57:41;1.80;;;0.40;;
3971;SDS011;2000;47.572;14.202;2023-04-01T06:00:08;0.30;;;0.20;;
3971;SDS011;2000;47.572;14.202;2023-04-01T06:02:35;0.80;;;0.30;;
3971;SDS011;2000;47.572;14.202;2023-04-01T06:07:37;0.40;;;0.30;;
3971;SDS011;2000;47.572;14.202;2023-04-01T06:10:08;0.30;;;0.20;;
3971;SDS011;2000;47.572;14.202;2023-04-01T06:12:52;0.83;;;0.33;;
3971;SDS011;2000;47.572;14.202;2023-04-01T06:18:30;0.30;;;0.20;;
3971;SDS011;2000;47.572;14.202;2023-04-01T06:26:54;0.97;;;0.40;;
3971;SDS011;2000;47.572;14.202;2023-04-01T06:40:45;1.33;;;1.23;;
3971;SDS011;2000;47.572;14.202;2023-04-01T06:46:06;1.03;;;0.80;;
3971;SDS011;2000;47.572;14.202;2023-04-01T06:53:58;0.73;;;0.67;;
3971;SDS011;2000;47.572;14.202;2023-04-01T06:56:42;0.70;;;0.30;;
3971;SDS011;2000;47.572;14.202;2023-04-01T06:59:15;2.13;;;0.30;;
3971;SDS011;2000;47.572;14.202;2023-04-01T07:01:45;0.43;;;0.20;;
3971;SDS011;2000;47.572;14.202;2023-04-01T07:04:18;0.30;;;0.20;;
3971;SDS011;2000;47.572;14.202;2023-04-01T07:06:53;0.20;;;0.20;;
3971;SDS011;2000;47.572;14.202;2023-04-01T07:09:23;0.20;;;0.20;;
3971;SDS011;2000;47.572;14.202;2023-04-01T07:12:00;0.83;;;0.20;;
3971;SDS011;2000;47.572;14.202;2023-04-01T07:14:30;0.70;;;0.20;;
3971;SDS011;2000;47.572;14.202;2023-04-01T07:17:00;0.43;;;0.43;;
3971;SDS011;2000;47.572;14.202;2023-04-01T07:19:35;0.30;;;0.27;;
3971;SDS011;2000;47.572;14.202;2023-04-01T07:25:27;0.50;;;0.20;;
3971;SDS011;2000;47.572;14.202;2023-04-01T07:28:03;0.40;;;0.20;;
3971;SDS011;2000;47.572;14.202;2023-04-01T07:33:45;0.30;;;0.20;;
3971;SDS011;2000;47.572;14.202;2023-04-01T07:36:22;0.30;;;0.20;;
3971;SDS011;2000;47.572;14.202;2023-04-01T07:44:37;1.80;;;0.50;;
3971;SDS011;2000;47.572;14.202;2023-04-01T07:47:18;0.40;;;0.33;;
3971;SDS011;2000;47.572;14.202;2023-04-01T07:52:24;2.80;;;2.60;;
3971;SDS011;2000;47.572;14.202;2023-04-01T07:55:15;0.40;;;0.40;;
3971;SDS011;2000;47.572;14.202;2023-04-01T07:58:00;0.50;;;0.30;;
3971;SDS011;2000;47.572;14.202;2023-04-01T08:00:54;11.00;;;5.30;;
3971;SDS011;2000;47.572;14.202;2023-04-01T08:03:28;7.40;;;3.17;;
3971;SDS011;2000;47.572;14.202;2023-04-01T08:06:06;2.00;;;0.50;;
3971;SDS011;2000;47.572;14.202;2023-04-01T08:23:25;4.00;;;1.00;;
3971;SDS011;2000;47.572;14.202;2023-04-01T08:26:09;0.70;;;0.30;;
3971;SDS011;2000;47.572;14.202;2023-04-01T08:28:44;0.20;;;0.20;;
3971;SDS011;2000;47.572;14.202;2023-04-01T08:31:18;0.30;;;0.20;;
3971;SDS011;2000;47.572;14.202;2023-04-01T08:33:53;0.40;;;0.20;;
3971;SDS011;2000;47.572;14.202;2023-04-01T08:36:21;0.20;;;0.13;;
3971;SDS011;2000;47.572;14.202;2023-04-01T08:51:11;0.20;;;0.20;;
3971;SDS011;2000;47.572;14.202;2023-04-01T09:09:17;0.20;;;0.20;;
3971;SDS011;2000;47.572;14.202;2023-04-01T09:28:34;0.53;;;0.30;;
3971;SDS011;2000;47.572;14.202;2023-04-01T09:41:56;2.10;;;0.30;;
3971;SDS011;2000;47.572;14.202;2023-04-01T09:44:34;2.53;;;0.20;;
3971;SDS011;2000;47.572;14.202;2023-04-01T09:51:22;0.30;;;0.20;;
3971;SDS011;2000;47.572;14.202;2023-04-01T09:56:59;0.20;;;0.20;;
3971;SDS011;2000;47.572;14.202;2023-04-01T10:11:15;0.27;;;0.20;;
3971;SDS011;2000;47.572;14.202;2023-04-01T10:36:13;0.60;;;0.27;;
3971;SDS011;2000;47.572;14.202;2023-04-01T10:49:47;1.67;;;0.30;;
3971;SDS011;2000;47.572;14.202;2023-04-01T10:52:32;0.40;;;0.30;;
3971;SDS011;2000;47.572;14.202;2023-04-01T11:13:42;0.30;;;0.20;;
3971;SDS011;2000;47.572;14.202;2023-04-01T11:24:45;0.50;;;0.30;;
3971;SDS011;2000;47.572;14.202;2023-04-01T11:33:17;1.50;;;0.30;;
3971;SDS011;2000;47.572;14.202;2023-04-01T11:40:25;0.30;;;0.20;;
3971;SDS011;2000;47.572;14.202;2023-04-01T11:43:01;0.50;;;0.30;;
3971;SDS011;2000;47.572;14.202;2023-04-01T11:45:38;1.33;;;0.30;;
3971;SDS011;2000;47.572;14.202;2023-04-01T11:50:46;0.30;;;0.20;;
3971;SDS011;2000;47.572;14.202;2023-04-01T12:19:39;0.40;;;0.30;;
3971;SDS011;2000;47.572;14.202;2023-04-01T12:24:51;0.30;;;0.20;;
3971;SDS011;2000;47.572;14.202;2023-04-01T12:50:19;0.30;;;0.20;;
3971;SDS011;2000;47.572;14.202;2023-04-01T12:53:20;1.90;;;0.30;;
3971;SDS011;2000;47.572;14.202;2023-04-01T12:55:50;0.40;;;0.20;;
3971;SDS011;2000;47.572;14.202;2023-04-01T12:58:36;0.40;;;0.30;;
3971;SDS011;2000;47.572;14.202;2023-04-01T13:01:30;0.40;;;0.20;;
3971;SDS011;2000;47.572;14.202;2023-04-01T13:04:08;0.30;;;0.20;;
3971;SDS011;2000;47.572;14.202;2023-04-01T13:06:45;0.30;;;0.20;;
3971;SDS011;2000;47.572;14.202;2023-04-01T13:20:03;0.40;;;0.40;;
3971;SDS011;2000;47.572;14.202;2023-04-01T13:25:33;0.40;;;0.20;;
3971;SDS011;2000;47.572;14.202;2023-04-01T13:28:11;0.80;;;0.63;;
3971;SDS011;2000;47.572;14.202;2023-04-01T13:30:59;0.40;;;0.30;;
3971;SDS011;2000;47.572;14.202;2023-04-01T13:33:45;0.47;;;0.27;;
3971;SDS011;2000;47.572;14.202;2023-04-01T13:36:23;0.30;;;0.20;;
3971;SDS011;2000;47.572;14.202;2023-04-01T13:41:44;0.30;;;0.20;;
3971;SDS011;2000;47.572;14.202;2023-04-01T13:44:32;1.13;;;0.30;;
3971;SDS011;2000;47.572;14.202;2023-04-01T13:55:35;0.30;;;0.20;;
3971;SDS011;2000;47.572;14.202;2023-04-01T14:00:39;1.47;;;1.47;;
3971;SDS011;2000;47.572;14.202;2023-04-01T14:03:27;0.23;;;0.20;;
3971;SDS011;2000;47.572;14.202;2023-04-01T14:06:09;0.30;;;0.20;;
3971;SDS011;2000;47.572;14.202;2023-04-01T14:20:06;0.30;;;0.20;;
3971;SDS011;2000;47.572;14.202;2023-04-01T14:33:43;1.70;;;0.20;;
3971;SDS011;2000;47.572;14.202;2023-04-01T14:50:18;0.30;;;0.20;;
3971;SDS011;2000;47.572;14.202;2023-04-01T14:58:16;0.30;;;0.30;;
3971;SDS011;2000;47.572;14.202;2023-04-01T15:00:48;0.30;;;0.20;;
3971;SDS011;2000;47.572;14.202;2023-04-01T15:03:48;0.73;;;0.27;;
3971;SDS011;2000;47.572;14.202;2023-04-01T15:14:26;0.30;;;0.30;;
3971;SDS011;2000;47.572;14.202;2023-04-01T15:17:44;0.50;;;0.50;;
3971;SDS011;2000;47.572;14.202;2023-04-01T15:28:15;0.30;;;0.20;;
3971;SDS011;2000;47.572;14.202;2023-04-01T15:30:56;5.47;;;3.27;;
3971;SDS011;2000;47.572;14.202;2023-04-01T15:36:28;0.70;;;0.63;;
3971;SDS011;2000;47.572;14.202;2023-04-01T15:39:17;1.93;;;1.10;;
3971;SDS011;2000;47.572;14.202;2023-04-01T15:42:35;0.30;;;0.20;;
3971;SDS011;2000;47.572;14.202;2023-04-01T15:49:53;0.30;;;0.20;;
3971;SDS011;2000;47.572;14.202;2023-04-01T15:57:55;1.90;;;0.40;;
3971;SDS011;2000;47.572;14.202;2023-04-01T16:00:33;0.40;;;0.30;;
3971;SDS011;2000;47.572;14.202;2023-04-01T16:14:31;0.30;;;0.30;;
3971;SDS011;2000;47.572;14.202;2023-04-01T16:22:54;0.30;;;0.20;;
3971;SDS011;2000;47.572;14.202;2023-04-01T16:25:41;0.30;;;0.20;;
3971;SDS011;2000;47.572;14.202;2023-04-01T16:34:18;0.30;;;0.20;;
3971;SDS011;2000;47.572;14.202;2023-04-01T16:45:23;8.97;;;1.40;;
3971;SDS011;2000;47.572;14.202;2023-04-01T16:48:13;3.70;;;1.43;;
3971;SDS011;2000;47.572;14.202;2023-04-01T16:53:42;2.20;;;0.60;;
3971;SDS011;2000;47.572;14.202;2023-04-01T16:56:12;0.60;;;0.40;;
3971;SDS011;2000;47.572;14.202;2023-04-01T16:58:48;0.40;;;0.40;;
3971;SDS011;2000;47.572;14.202;2023-04-01T17:01:28;1.53;;;0.63;;
3971;SDS011;2000;47.572;14.202;2023-04-01T17:04:54;3.00;;;1.63;;
3971;SDS011;2000;47.572;14.202;2023-04-01T17:07:04;1.73;;;1.50;;
3971;SDS011;2000;47.572;14.202;2023-04-01T17:18:07;2.77;;;1.90;;
3971;SDS011;2000;47.572;14.202;2023-04-01T17:23:38;0.73;;;0.57;;
3971;SDS011;2000;47.572;14.202;2023-04-01T17:32:28;4.53;;;0.60;;
3971;SDS011;2000;47.572;14.202;2023-04-01T17:35:19;2.03;;;1.83;;
3971;SDS011;2000;47.572;14.202;2023-04-01T17:38:00;1.17;;;1.00;;
3971;SDS011;2000;47.572;14.202;2023-04-01T17:43:16;1.10;;;1.00;;
3971;SDS011;2000;47.572;14.202;2023-04-01T17:45:55;1.30;;;1.20;;
3971;SDS011;2000;47.572;14.202;2023-04-01T17:48:41;1.27;;;0.90;;
3971;SDS011;2000;47.572;14.202;2023-04-01T17:51:32;2.27;;;1.07;;
3971;SDS011;2000;47.572;14.202;2023-04-01T17:54:11;0.57;;;0.30;;
3971;SDS011;2000;47.572;14.202;2023-04-01T17:59:58;4.00;;;3.30;;
3971;SDS011;2000;47.572;14.202;2023-04-01T18:02:43;3.10;;;1.20;;
3971;SDS011;2000;47.572;14.202;2023-04-01T18:05:30;0.40;;;0.40;;
3971;SDS011;2000;47.572;14.202;2023-04-01T18:22:56;0.30;;;0.20;;
3971;SDS011;2000;47.572;14.202;2023-04-01T18:25:35;0.80;;;0.53;;
3971;SDS011;2000;47.572;14.202;2023-04-01T18:33:37;1.60;;;1.50;;
3971;SDS011;2000;47.572;14.202;2023-04-01T18:41:49;0.70;;;0.30;;
3971;SDS011;2000;47.572;14.202;2023-04-01T19:03:11;7.20;;;3.67;;
3971;SDS011;2000;47.572;14.202;2023-04-01T19:05:50;3.20;;;1.30;;
3971;SDS011;2000;47.572;14.202;2023-04-01T19:08:25;8.00;;;5.93;;
3971;SDS011;2000;47.572;14.202;2023-04-01T19:21:36;32.07;;;17.57;;
3971;SDS011;2000;47.572;14.202;2023-04-01T19:26:53;112.37;;;52.10;;
3971;SDS011;2000;47.572;14.202;2023-04-01T19:32:11;63.40;;;28.77;;
3971;SDS011;2000;47.572;14.202;2023-04-01T19:37:34;71.27;;;29.17;;
3971;SDS011;2000;47.572;14.202;2023-04-01T19:40:18;52.30;;;22.90;;
3971;SDS011;2000;47.572;14.202;2023-04-01T19:58:45;43.60;;;13.87;;
3971;SDS011;2000;47.572;14.202;2023-04-01T20:01:24;28.07;;;12.17;;
3971;SDS011;2000;47.572;14.202;2023-04-01T20:04:13;73.70;;;39.00;;
3971;SDS011;2000;47.572;14.202;2023-04-01T20:06:45;52.20;;;24.47;;
3971;SDS011;2000;47.572;14.202;2023-04-01T20:09:26;8.40;;;4.43;;
3971;SDS011;2000;47.572;14.202;2023-04-01T20:11:57;133.50;;;49.10;;
3971;SDS011;2000;47.572;14.202;2023-04-01T20:14:51;77.33;;;36.57;;
3971;SDS011;2000;47.572;14.202;2023-04-01T20:17:32;14.90;;;7.77;;
3971;SDS011;2000;47.572;14.202;2023-04-01T20:27:47;2.20;;;0.73;;
3971;SDS011;2000;47.572;14.202;2023-04-01T20:30:27;0.90;;;0.60;;
3971;SDS011;2000;47.572;14.202;2023-04-01T20:33:00;0.40;;;0.30;;
3971;SDS011;2000;47.572;14.202;2023-04-01T20:36:08;1.33;;;0.40;;
3971;SDS011;2000;47.572;14.202;2023-04-01T20:41:55;0.57;;;0.40;;
3971;SDS011;2000;47.572;14.202;2023-04-01T20:50:29;1.23;;;0.40;;
3971;SDS011;2000;47.572;14.202;2023-04-01T20:53:07;0.40;;;0.30;;
3971;SDS011;2000;47.572;14.202;2023-04-01T20:55:47;0.53;;;0.20;;
3971;SDS011;2000;47.572;14.202;2023-04-01T20:58:21;4.53;;;0.40;;
3971;SDS011;2000;47.572;14.202;2023-04-01T21:09:21;0.40;;;0.20;;
3971;SDS011;2000;47.572;14.202;2023-04-01T21:11:59;0.57;;;0.37;;
3971;SDS011;2000;47.572;14.202;2023-04-01T21:21:11;1.63;;;0.20;;
3971;SDS011;2000;47.572;14.202;2023-04-01T21:23:49;1.13;;;0.40;;
3971;SDS011;2000;47.572;14.202;2023-04-01T21:26:47;0.40;;;0.30;;
3971;SDS011;2000;47.572;14.202;2023-04-01T21:29:28;1.07;;;0.37;;
3971;SDS011;2000;47.572;14.202;2023-04-01T21:34:43;1.40;;;0.30;;
3971;SDS011;2000;47.572;14.202;2023-04-01T21:37:41;0.30;;;0.23;;
3971;SDS011;2000;47.572;14.202;2023-04-01T21:54:03;0.60;;;0.40;;
3971;SDS011;2000;47.572;14.202;2023-04-01T22:05:10;0.90;;;0.20;;
3971;SDS011;2000;47.572;14.202;2023-04-01T22:07:45;0.20;;;0.20;;
3971;SDS011;2000;47.572;14.202;2023-04-01T22:10:28;0.83;;;0.20;;
3971;SDS011;2000;47.572;14.202;2023-04-01T22:19:01;0.97;;;0.40;;
3971;SDS011;2000;47.572;14.202;2023-04-01T22:21:33;0.30;;;0.20;;
3971;SDS011;2000;47.572;14.202;2023-04-01T22:24:14;0.40;;;0.20;;
3971;SDS011;2000;47.572;14.202;2023-04-01T22:26:45;0.30;;;0.20;;
3971;SDS011;2000;47.572;14.202;2023-04-01T22:37:40;2.10;;;0.40;;
3971;SDS011;2000;47.572;14.202;2023-04-01T22:43:39;4.23;;;0.50;;
3971;SDS011;2000;47.572;14.202;2023-04-01T22:48:59;1.37;;;0.37;;
3971;SDS011;2000;47.572;14.202;2023-04-01T22:54:19;0.30;;;0.20;;
3971;SDS011;2000;47.572;14.202;2023-04-01T22:57:04;0.30;;;0.23;;
3971;SDS011;2000;47.572;14.202;2023-04-01T22:59:39;0.30;;;0.20;;
3971;SDS011;2000;47.572;14.202;2023-04-01T23:02:22;0.37;;;0.30;;
3971;SDS011;2000;47.572;14.202;2023-04-01T23:04:54;3.07;;;0.20;;
3971;SDS011;2000;47.572;14.202;2023-04-01T23:07:33;5.40;;;0.20;;
3971;SDS011;2000;47.572;14.202;2023-04-01T23:10:17;0.40;;;0.20;;
3971;SDS011;2000;47.572;14.202;2023-04-01T23:12:47;0.40;;;0.20;;
3971;SDS011;2000;47.572;14.202;2023-04-01T23:15:14;0.30;;;0.20;;
3971;SDS011;2000;47.572;14.202;2023-04-01T23:20:32;0.30;;;0.30;;
3971;SDS011;2000;47.572;14.202;2023-04-01T23:23:29;0.87;;;0.30;;
3971;SDS011;2000;47.572;14.202;2023-04-01T23:28:56;0.30;;;0.20;;
3971;SDS011;2000;47.572;14.202;2023-04-01T23:31:39;12.03;;;0.50;;
3971;SDS011;2000;47.572;14.202;2023-04-01T23:36:41;0.27;;;0.20;;
3971;SDS011;2000;47.572;14.202;2023-04-01T23:39:23;0.30;;;0.20;;
3971;SDS011;2000;47.572;14.202;2023-04-01T23:42:14;0.73;;;0.40;;
3971;SDS011;2000;47.572;14.202;2023-04-01T23:44:44;1.53;;;0.53;;
3971;SDS011;2000;47.572;14.202;2023-04-01T23:47:13;0.27;;;0.23;;
3971;SDS011;2000;47.572;14.202;2023-04-01T23:49:43;1.43;;;0.30;;
3971;SDS011;2000;47.572;14.202;2023-04-01T23:52:25;1.03;;;0.20;;
3971;SDS011;2000;47.572;14.202;2023-04-01T23:57:38;0.83;;;0.30;;
